sensor_id;sensor_type;location;lat;lon;timestamp;noise_LAeq;noise_LA_min;noise_LA_max;noise_LA01;noise_LA95
60503;Laerm;51448;51.660;5.824;2022-09-27T00:01:27;44.06;32.48;55.35;;
60503;Laerm;51448;51.660;5.824;2022-09-27T00:03:55;44.79;31.46;57.21;;
60503;Laerm;51448;51.660;5.824;2022-09-27T00:06:29;44.00;31.19;55.57;;
60503;Laerm;51448;51.660;5.824;2022-09-27T00:08:58;44.31;30.79;54.90;;
60503;Laerm;51448;51.660;5.824;2022-09-27T00:11:38;42.39;30.59;55.76;;
60503;Laerm;51448;51.660;5.824;2022-09-27T00:14:07;43.98;30.86;55.18;;
60503;Laerm;51448;51.660;5.824;2022-09-27T00:16:38;44.89;30.92;55.47;;
60503;Laerm;51448;51.660;5.824;2022-09-27T00:19:11;43.58;31.19;55.14;;
60503;Laerm;51448;51.660;5.824;2022-09-27T00:21:44;43.32;31.92;54.08;;
60503;Laerm;51448;51.660;5.824;2022-09-27T00:24:14;43.45;31.64;53.83;;
60503;Laerm;51448;51.660;5.824;2022-09-27T00:26:43;44.43;31.23;55.01;;
60503;Laerm;51448;51.660;5.824;2022-09-27T00:29:10;43.33;31.30;54.23;;
60503;Laerm;51448;51.660;5.824;2022-09-27T00:31:38;46.90;30.76;62.77;;
60503;Laerm;51448;51.660;5.824;2022-09-27T00:34:17;43.04;31.60;55.11;;
60503;Laerm;51448;51.660;5.824;2022-09-27T00:36:45;42.98;31.16;53.78;;
60503;Laerm;51448;51.660;5.824;2022-09-27T00:39:13;46.83;31.39;64.05;;
60503;Laerm;51448;51.660;5.824;2022-09-27T00:41:41;44.06;33.03;56.03;;
60503;Laerm;51448;51.660;5.824;2022-09-27T00:49:40;42.83;31.00;58.76;;
60503;Laerm;51448;51.660;5.824;2022-09-27T00:52:20;42.86;30.57;55.47;;
60503;Laerm;51448;51.660;5.824;2022-09-27T00:54:57;44.15;31.22;55.45;;
60503;Laerm;51448;51.660;5.824;2022-09-27T00:57:27;44.52;31.15;55.52;;
60503;Laerm;51448;51.660;5.824;2022-09-27T01:00:07;43.60;32.11;54.99;;
60503;Laerm;51448;51.660;5.824;2022-09-27T01:02:40;43.70;31.75;55.04;;
60503;Laerm;51448;51.660;5.824;2022-09-27T01:05:11;47.11;31.86;72.04;;
60503;Laerm;51448;51.660;5.824;2022-09-27T01:07:40;46.17;31.91;59.66;;
60503;Laerm;51448;51.660;5.824;2022-09-27T01:10:09;44.81;31.78;55.78;;
60503;Laerm;51448;51.660;5.824;2022-09-27T01:18:43;44.46;32.13;55.43;;
60503;Laerm;51448;51.660;5.824;2022-09-27T01:21:49;42.97;32.42;55.43;;
60503;Laerm;51448;51.660;5.824;2022-09-27T01:25:03;43.00;31.31;55.06;;
60503;Laerm;51448;51.660;5.824;2022-09-27T01:30:53;43.83;30.79;55.32;;
60503;Laerm;51448;51.660;5.824;2022-09-27T01:36:38;44.05;31.56;55.32;;
60503;Laerm;51448;51.660;5.824;2022-09-27T01:39:35;43.77;32.65;55.13;;
60503;Laerm;51448;51.660;5.824;2022-09-27T01:42:57;42.39;31.70;55.04;;
60503;Laerm;51448;51.660;5.824;2022-09-27T01:45:57;42.91;30.90;62.16;;
60503;Laerm;51448;51.660;5.824;2022-09-27T01:48:50;43.47;30.95;55.88;;
60503;Laerm;51448;51.660;5.824;2022-09-27T01:51:29;45.13;30.76;59.95;;
60503;Laerm;51448;51.660;5.824;2022-09-27T01:54:04;43.00;31.00;55.69;;
60503;Laerm;51448;51.660;5.824;2022-09-27T01:57:02;42.46;30.91;57.38;;
60503;Laerm;51448;51.660;5.824;2022-09-27T01:59:50;44.14;32.37;55.51;;
60503;Laerm;51448;51.660;5.824;2022-09-27T02:02:47;43.14;31.85;54.83;;
60503;Laerm;51448;51.660;5.824;2022-09-27T02:05:49;43.10;31.69;55.02;;
60503;Laerm;51448;51.660;5.824;2022-09-27T02:08:50;43.23;32.30;55.06;;
60503;Laerm;51448;51.660;5.824;2022-09-27T02:11:40;44.90;32.12;58.22;;
60503;Laerm;51448;51.660;5.824;2022-09-27T02:14:30;43.54;31.73;54.81;;
60503;Laerm;51448;51.660;5.824;2022-09-27T02:19:53;43.99;32.03;55.38;;
60503;Laerm;51448;51.660;5.824;2022-09-27T02:22:48;42.43;31.88;55.48;;
60503;Laerm;51448;51.660;5.824;2022-09-27T02:25:29;43.15;31.48;54.67;;
60503;Laerm;51448;51.660;5.824;2022-09-27T02:28:29;43.80;31.51;55.17;;
60503;Laerm;51448;51.660;5.824;2022-09-27T02:30:58;43.58;32.85;54.31;;
60503;Laerm;51448;51.660;5.824;2022-09-27T02:33:41;42.95;31.41;53.56;;
60503;Laerm;51448;51.660;5.824;2022-09-27T02:36:12;43.99;31.21;54.91;;
60503;Laerm;51448;51.660;5.824;2022-09-27T02:38:41;44.61;31.71;55.76;;
60503;Laerm;51448;51.660;5.824;2022-09-27T02:41:16;44.38;32.29;54.79;;
60503;Laerm;51448;51.660;5.824;2022-09-27T02:43:49;44.31;31.85;55.39;;
60503;Laerm;51448;51.660;5.824;2022-09-27T02:47:03;44.22;32.58;54.85;;
60503;Laerm;51448;51.660;5.824;2022-09-27T02:56:33;42.93;31.10;54.88;;
60503;Laerm;51448;51.660;5.824;2022-09-27T03:02:37;42.99;30.93;55.03;;
60503;Laerm;51448;51.660;5.824;2022-09-27T03:05:45;43.03;32.39;54.53;;
60503;Laerm;51448;51.660;5.824;2022-09-27T03:08:16;45.27;33.34;57.57;;
60503;Laerm;51448;51.660;5.824;2022-09-27T03:10:43;46.48;32.67;59.99;;
60503;Laerm;51448;51.660;5.824;2022-09-27T03:13:11;43.46;32.23;56.96;;
60503;Laerm;51448;51.660;5.824;2022-09-27T03:15:40;45.26;33.76;57.49;;
60503;Laerm;51448;51.660;5.824;2022-09-27T03:18:07;49.57;34.41;62.49;;
60503;Laerm;51448;51.660;5.824;2022-09-27T03:20:52;43.93;33.45;54.43;;
60503;Laerm;51448;51.660;5.824;2022-09-27T03:23:23;44.33;33.27;55.18;;
60503;Laerm;51448;51.660;5.824;2022-09-27T03:25:50;44.46;33.66;55.28;;
60503;Laerm;51448;51.660;5.824;2022-09-27T03:28:18;43.69;32.88;55.53;;
60503;Laerm;51448;51.660;5.824;2022-09-27T03:30:47;44.05;34.06;54.55;;
60503;Laerm;51448;51.660;5.824;2022-09-27T03:33:38;44.71;34.08;55.08;;
60503;Laerm;51448;51.660;5.824;2022-09-27T03:36:12;44.63;34.42;54.98;;
60503;Laerm;51448;51.660;5.824;2022-09-27T03:38:39;47.20;35.48;58.05;;
60503;Laerm;51448;51.660;5.824;2022-09-27T03:41:10;47.13;36.13;58.39;;
60503;Laerm;51448;51.660;5.824;2022-09-27T03:43:38;44.69;34.61;55.03;;
60503;Laerm;51448;51.660;5.824;2022-09-27T03:46:06;45.35;34.67;61.61;;
60503;Laerm;51448;51.660;5.824;2022-09-27T03:48:33;48.46;34.65;60.90;;
60503;Laerm;51448;51.660;5.824;2022-09-27T03:51:01;45.30;34.61;57.03;;
60503;Laerm;51448;51.660;5.824;2022-09-27T03:53:30;44.52;34.63;53.83;;
60503;Laerm;51448;51.660;5.824;2022-09-27T03:55:58;47.44;36.78;63.44;;
60503;Laerm;51448;51.660;5.824;2022-09-27T03:58:25;48.54;36.27;67.87;;
60503;Laerm;51448;51.660;5.824;2022-09-27T04:00:53;48.12;35.10;58.83;;
60503;Laerm;51448;51.660;5.824;2022-09-27T04:03:20;43.81;34.78;55.51;;
60503;Laerm;51448;51.660;5.824;2022-09-27T04:06:08;45.07;36.08;58.64;;
60503;Laerm;51448;51.660;5.824;2022-09-27T04:08:42;45.27;37.06;55.08;;
60503;Laerm;51448;51.660;5.824;2022-09-27T04:11:10;46.50;37.24;58.76;;
60503;Laerm;51448;51.660;5.824;2022-09-27T04:13:41;50.66;39.38;61.24;;
60503;Laerm;51448;51.660;5.824;2022-09-27T04:16:09;50.24;40.08;62.03;;
60503;Laerm;51448;51.660;5.824;2022-09-27T04:18:50;50.04;41.21;60.56;;
60503;Laerm;51448;51.660;5.824;2022-09-27T04:21:37;48.83;39.74;61.75;;
60503;Laerm;51448;51.660;5.824;2022-09-27T04:24:07;48.52;41.28;64.06;;
60503;Laerm;51448;51.660;5.824;2022-09-27T04:26:39;46.96;40.95;57.07;;
60503;Laerm;51448;51.660;5.824;2022-09-27T04:29:12;48.49;38.57;65.96;;
60503;Laerm;51448;51.660;5.824;2022-09-27T04:31:49;47.69;39.44;59.35;;
60503;Laerm;51448;51.660;5.824;2022-09-27T04:34:30;50.36;40.15;61.51;;
60503;Laerm;51448;51.660;5.824;2022-09-27T04:37:22;49.96;39.62;59.70;;
60503;Laerm;51448;51.660;5.824;2022-09-27T04:39:53;46.01;38.66;56.52;;
60503;Laerm;51448;51.660;5.824;2022-09-27T04:42:21;48.89;38.51;65.07;;
60503;Laerm;51448;51.660;5.824;2022-09-27T04:44:48;49.11;37.86;63.15;;
60503;Laerm;51448;51.660;5.824;2022-09-27T04:47:15;53.13;39.28;68.94;;
60503;Laerm;51448;51.660;5.824;2022-09-27T04:49:44;49.68;38.53;76.52;;
60503;Laerm;51448;51.660;5.824;2022-09-27T04:52:14;49.84;37.61;62.81;;
60503;Laerm;51448;51.660;5.824;2022-09-27T04:54:42;50.95;36.67;63.01;;
60503;Laerm;51448;51.660;5.824;2022-09-27T04:57:11;57.51;39.48;69.00;;
60503;Laerm;51448;51.660;5.824;2022-09-27T04:59:39;50.45;42.30;59.03;;
60503;Laerm;51448;51.660;5.824;2022-09-27T05:02:08;51.46;40.42;59.56;;
60503;Laerm;51448;51.660;5.824;2022-09-27T05:04:54;50.56;39.81;60.26;;
60503;Laerm;51448;51.660;5.824;2022-09-27T05:07:28;49.64;38.90;59.18;;
60503;Laerm;51448;51.660;5.824;2022-09-27T05:10:03;50.68;40.64;67.10;;
60503;Laerm;51448;51.660;5.824;2022-09-27T05:12:32;52.08;40.23;64.42;;
60503;Laerm;51448;51.660;5.824;2022-09-27T05:15:14;51.31;40.79;59.49;;
60503;Laerm;51448;51.660;5.824;2022-09-27T05:18:13;50.64;39.71;71.94;;
60503;Laerm;51448;51.660;5.824;2022-09-27T05:21:00;53.44;42.77;65.16;;
60503;Laerm;51448;51.660;5.824;2022-09-27T05:23:34;51.64;43.24;67.31;;
60503;Laerm;51448;51.660;5.824;2022-09-27T05:26:06;51.42;42.88;63.64;;
60503;Laerm;51448;51.660;5.824;2022-09-27T05:28:34;52.55;43.15;62.74;;
60503;Laerm;51448;51.660;5.824;2022-09-27T05:31:01;52.55;43.05;64.39;;
60503;Laerm;51448;51.660;5.824;2022-09-27T05:33:29;53.76;42.56;62.64;;
60503;Laerm;51448;51.660;5.824;2022-09-27T05:36:15;52.75;41.90;68.17;;
60503;Laerm;51448;51.660;5.824;2022-09-27T05:38:43;52.09;43.09;61.26;;
60503;Laerm;51448;51.660;5.824;2022-09-27T05:41:11;54.27;44.49;73.07;;
60503;Laerm;51448;51.660;5.824;2022-09-27T05:43:39;55.97;43.88;65.87;;
60503;Laerm;51448;51.660;5.824;2022-09-27T05:46:07;53.61;43.06;63.42;;
60503;Laerm;51448;51.660;5.824;2022-09-27T05:48:37;51.72;42.77;63.53;;
60503;Laerm;51448;51.660;5.824;2022-09-27T05:51:06;51.02;42.32;61.69;;
60503;Laerm;51448;51.660;5.824;2022-09-27T05:53:37;54.90;43.96;72.91;;
60503;Laerm;51448;51.660;5.824;2022-09-27T05:56:08;52.75;42.01;62.39;;
60503;Laerm;51448;51.660;5.824;2022-09-27T05:58:58;51.84;39.78;65.04;;
60503;Laerm;51448;51.660;5.824;2022-09-27T06:01:32;51.60;41.28;68.67;;
60503;Laerm;51448;51.660;5.824;2022-09-27T06:04:19;50.80;40.44;61.23;;
60503;Laerm;51448;51.660;5.824;2022-09-27T06:07:01;50.44;40.38;60.36;;
60503;Laerm;51448;51.660;5.824;2022-09-27T06:09:28;54.21;40.22;67.79;;
60503;Laerm;51448;51.660;5.824;2022-09-27T06:11:56;51.40;40.45;71.54;;
60503;Laerm;51448;51.660;5.824;2022-09-27T06:14:25;52.81;40.33;64.40;;
60503;Laerm;51448;51.660;5.824;2022-09-27T06:16:59;51.34;40.30;63.38;;
60503;Laerm;51448;51.660;5.824;2022-09-27T06:19:31;52.53;40.84;66.64;;
60503;Laerm;51448;51.660;5.824;2022-09-27T06:21:58;51.34;39.99;62.92;;
60503;Laerm;51448;51.660;5.824;2022-09-27T06:24:35;51.53;40.71;65.71;;
60503;Laerm;51448;51.660;5.824;2022-09-27T06:27:08;53.93;41.10;67.19;;
60503;Laerm;51448;51.660;5.824;2022-09-27T06:29:45;52.55;40.75;70.85;;
60503;Laerm;51448;51.660;5.824;2022-09-27T06:32:23;51.08;40.86;63.89;;
60503;Laerm;51448;51.660;5.824;2022-09-27T06:34:57;51.51;40.77;60.36;;
60503;Laerm;51448;51.660;5.824;2022-09-27T06:37:25;57.47;41.52;76.15;;
60503;Laerm;51448;51.660;5.824;2022-09-27T06:39:53;49.23;40.16;62.85;;
60503;Laerm;51448;51.660;5.824;2022-09-27T06:42:40;51.41;40.54;69.12;;
60503;Laerm;51448;51.660;5.824;2022-09-27T06:45:17;49.26;38.20;59.44;;
60503;Laerm;51448;51.660;5.824;2022-09-27T06:48:05;48.32;38.87;63.49;;
60503;Laerm;51448;51.660;5.824;2022-09-27T06:50:46;51.73;42.25;63.59;;
60503;Laerm;51448;51.660;5.824;2022-09-27T06:53:16;50.85;40.75;68.21;;
60503;Laerm;51448;51.660;5.824;2022-09-27T06:55:50;51.78;42.08;61.76;;
60503;Laerm;51448;51.660;5.824;2022-09-27T06:58:45;47.28;40.39;56.94;;
60503;Laerm;51448;51.660;5.824;2022-09-27T07:01:54;49.17;38.42;61.19;;
60503;Laerm;51448;51.660;5.824;2022-09-27T07:04:46;49.12;37.43;61.18;;
60503;Laerm;51448;51.660;5.824;2022-09-27T07:07:27;50.04;39.95;62.28;;
60503;Laerm;51448;51.660;5.824;2022-09-27T07:09:55;47.61;40.28;60.82;;
60503;Laerm;51448;51.660;5.824;2022-09-27T07:12:26;50.89;39.77;66.90;;
60503;Laerm;51448;51.660;5.824;2022-09-27T07:14:54;47.54;38.62;63.43;;
60503;Laerm;51448;51.660;5.824;2022-09-27T07:17:22;49.45;37.35;71.64;;
60503;Laerm;51448;51.660;5.824;2022-09-27T07:19:51;49.42;38.48;60.98;;
60503;Laerm;51448;51.660;5.824;2022-09-27T07:22:19;48.59;38.49;58.53;;
60503;Laerm;51448;51.660;5.824;2022-09-27T07:24:53;49.47;40.19;60.16;;
60503;Laerm;51448;51.660;5.824;2022-09-27T07:27:22;51.77;38.63;62.35;;
60503;Laerm;51448;51.660;5.824;2022-09-27T07:29:51;49.17;39.91;58.45;;
60503;Laerm;51448;51.660;5.824;2022-09-27T07:32:19;48.71;38.20;66.32;;
60503;Laerm;51448;51.660;5.824;2022-09-27T07:34:46;48.82;37.36;62.46;;
60503;Laerm;51448;51.660;5.824;2022-09-27T07:37:14;52.93;38.10;76.14;;
60503;Laerm;51448;51.660;5.824;2022-09-27T07:39:43;48.63;37.74;77.61;;
60503;Laerm;51448;51.660;5.824;2022-09-27T07:42:12;50.43;36.69;80.31;;
60503;Laerm;51448;51.660;5.824;2022-09-27T07:44:43;49.70;38.53;60.54;;
60503;Laerm;51448;51.660;5.824;2022-09-27T07:47:29;52.38;40.42;63.62;;
60503;Laerm;51448;51.660;5.824;2022-09-27T07:50:10;56.64;45.54;70.00;;
60503;Laerm;51448;51.660;5.824;2022-09-27T07:53:03;51.83;39.69;64.43;;
60503;Laerm;51448;51.660;5.824;2022-09-27T07:56:01;47.27;39.13;62.73;;
60503;Laerm;51448;51.660;5.824;2022-09-27T07:58:31;48.24;39.41;58.08;;
60503;Laerm;51448;51.660;5.824;2022-09-27T08:01:01;48.30;36.20;61.11;;
60503;Laerm;51448;51.660;5.824;2022-09-27T08:03:29;52.51;38.39;69.66;;
60503;Laerm;51448;51.660;5.824;2022-09-27T08:06:01;46.50;38.23;58.64;;
60503;Laerm;51448;51.660;5.824;2022-09-27T08:08:30;46.01;37.96;61.84;;
60503;Laerm;51448;51.660;5.824;2022-09-27T08:10:59;46.42;40.21;59.13;;
60503;Laerm;51448;51.660;5.824;2022-09-27T08:13:26;48.58;39.66;60.80;;
60503;Laerm;51448;51.660;5.824;2022-09-27T08:16:00;48.42;39.31;59.38;;
60503;Laerm;51448;51.660;5.824;2022-09-27T08:18:33;50.64;40.14;58.97;;
60503;Laerm;51448;51.660;5.824;2022-09-27T08:21:18;52.32;41.58;65.55;;
60503;Laerm;51448;51.660;5.824;2022-09-27T08:24:10;49.84;40.33;63.26;;
60503;Laerm;51448;51.660;5.824;2022-09-27T08:27:03;48.81;39.58;60.35;;
60503;Laerm;51448;51.660;5.824;2022-09-27T08:29:52;51.79;38.34;64.58;;
60503;Laerm;51448;51.660;5.824;2022-09-27T08:32:20;47.15;38.10;55.88;;
60503;Laerm;51448;51.660;5.824;2022-09-27T08:34:50;48.67;39.87;60.72;;
60503;Laerm;51448;51.660;5.824;2022-09-27T08:37:23;50.81;40.94;74.71;;
60503;Laerm;51448;51.660;5.824;2022-09-27T08:39:51;50.43;39.83;63.06;;
60503;Laerm;51448;51.660;5.824;2022-09-27T08:42:45;46.10;38.01;58.13;;
60503;Laerm;51448;51.660;5.824;2022-09-27T08:45:40;58.47;38.39;69.42;;
60503;Laerm;51448;51.660;5.824;2022-09-27T08:48:16;66.68;40.36;82.37;;
60503;Laerm;51448;51.660;5.824;2022-09-27T08:50:46;49.46;41.04;63.43;;
60503;Laerm;51448;51.660;5.824;2022-09-27T08:53:21;48.57;39.34;64.72;;
60503;Laerm;51448;51.660;5.824;2022-09-27T08:55:56;47.52;38.79;57.29;;
60503;Laerm;51448;51.660;5.824;2022-09-27T08:58:36;48.61;39.75;59.95;;
60503;Laerm;51448;51.660;5.824;2022-09-27T09:01:16;59.32;38.94;70.40;;
60503;Laerm;51448;51.660;5.824;2022-09-27T09:03:56;57.82;42.12;81.79;;
60503;Laerm;51448;51.660;5.824;2022-09-27T09:09:36;49.87;42.73;60.75;;
60503;Laerm;51448;51.660;5.824;2022-09-27T09:15:36;51.93;40.71;76.03;;
60503;Laerm;51448;51.660;5.824;2022-09-27T09:19:03;53.63;44.45;71.05;;
60503;Laerm;51448;51.660;5.824;2022-09-27T09:22:22;54.21;41.01;76.01;;
60503;Laerm;51448;51.660;5.824;2022-09-27T09:28:10;50.93;39.56;65.50;;
60503;Laerm;51448;51.660;5.824;2022-09-27T09:31:14;53.66;39.45;68.48;;
60503;Laerm;51448;51.660;5.824;2022-09-27T09:33:54;55.98;40.33;79.06;;
60503;Laerm;51448;51.660;5.824;2022-09-27T09:36:45;57.29;38.70;83.33;;
60503;Laerm;51448;51.660;5.824;2022-09-27T09:39:42;46.70;38.76;68.78;;
60503;Laerm;51448;51.660;5.824;2022-09-27T09:42:25;48.77;39.39;62.89;;
60503;Laerm;51448;51.660;5.824;2022-09-27T09:45:05;48.91;39.22;60.67;;
60503;Laerm;51448;51.660;5.824;2022-09-27T09:47:50;50.89;42.00;62.29;;
60503;Laerm;51448;51.660;5.824;2022-09-27T09:50:30;54.26;43.03;69.76;;
60503;Laerm;51448;51.660;5.824;2022-09-27T09:56:04;51.83;42.87;63.95;;
60503;Laerm;51448;51.660;5.824;2022-09-27T09:58:43;52.17;43.16;65.93;;
60503;Laerm;51448;51.660;5.824;2022-09-27T10:01:32;50.68;41.28;63.74;;
60503;Laerm;51448;51.660;5.824;2022-09-27T10:04:02;50.74;40.48;63.07;;
60503;Laerm;51448;51.660;5.824;2022-09-27T10:06:31;49.66;38.38;62.88;;
60503;Laerm;51448;51.660;5.824;2022-09-27T10:09:01;50.06;38.88;65.06;;
60503;Laerm;51448;51.660;5.824;2022-09-27T10:11:45;51.76;39.42;71.82;;
60503;Laerm;51448;51.660;5.824;2022-09-27T10:14:19;49.40;38.04;63.59;;
60503;Laerm;51448;51.660;5.824;2022-09-27T10:16:58;49.54;36.77;63.74;;
60503;Laerm;51448;51.660;5.824;2022-09-27T10:19:30;54.29;40.22;77.91;;
60503;Laerm;51448;51.660;5.824;2022-09-27T10:22:27;51.33;42.23;65.82;;
60503;Laerm;51448;51.660;5.824;2022-09-27T10:25:10;53.36;44.00;69.85;;
60503;Laerm;51448;51.660;5.824;2022-09-27T10:27:46;56.32;50.48;67.35;;
60503;Laerm;51448;51.660;5.824;2022-09-27T10:30:28;56.19;50.29;69.71;;
60503;Laerm;51448;51.660;5.824;2022-09-27T10:33:19;55.80;45.46;76.72;;
60503;Laerm;51448;51.660;5.824;2022-09-27T10:35:52;49.79;42.89;62.96;;
60503;Laerm;51448;51.660;5.824;2022-09-27T10:38:30;51.28;39.73;63.43;;
60503;Laerm;51448;51.660;5.824;2022-09-27T10:41:21;51.04;39.61;62.25;;
60503;Laerm;51448;51.660;5.824;2022-09-27T10:43:51;47.62;37.87;63.92;;
60503;Laerm;51448;51.660;5.824;2022-09-27T10:46:32;53.47;40.34;64.86;;
60503;Laerm;51448;51.660;5.824;2022-09-27T10:49:37;52.52;42.13;68.02;;
60503;Laerm;51448;51.660;5.824;2022-09-27T10:52:22;50.43;42.12;67.55;;
60503;Laerm;51448;51.660;5.824;2022-09-27T10:55:23;50.43;40.74;62.22;;
60503;Laerm;51448;51.660;5.824;2022-09-27T10:57:55;51.55;39.28;65.98;;
60503;Laerm;51448;51.660;5.824;2022-09-27T11:00:29;50.99;41.26;61.84;;
60503;Laerm;51448;51.660;5.824;2022-09-27T11:03:06;47.08;38.56;59.72;;
60503;Laerm;51448;51.660;5.824;2022-09-27T11:05:39;51.16;39.16;63.91;;
60503;Laerm;51448;51.660;5.824;2022-09-27T11:14:05;53.00;39.49;66.77;;
60503;Laerm;51448;51.660;5.824;2022-09-27T11:19:47;48.91;40.76;69.40;;
60503;Laerm;51448;51.660;5.824;2022-09-27T11:22:40;51.50;39.76;65.78;;
60503;Laerm;51448;51.660;5.824;2022-09-27T11:25:37;50.44;40.81;66.85;;
60503;Laerm;51448;51.660;5.824;2022-09-27T11:28:48;53.19;41.78;71.48;;
60503;Laerm;51448;51.660;5.824;2022-09-27T11:32:08;50.22;42.71;61.15;;
60503;Laerm;51448;51.660;5.824;2022-09-27T11:38:25;50.77;40.91;67.66;;
60503;Laerm;51448;51.660;5.824;2022-09-27T11:41:44;56.29;42.25;78.32;;
60503;Laerm;51448;51.660;5.824;2022-09-27T11:44:43;51.18;41.48;66.77;;
60503;Laerm;51448;51.660;5.824;2022-09-27T11:47:44;49.16;42.39;64.54;;
60503;Laerm;51448;51.660;5.824;2022-09-27T11:50:42;49.81;41.44;61.58;;
60503;Laerm;51448;51.660;5.824;2022-09-27T11:56:46;47.73;38.81;57.27;;
60503;Laerm;51448;51.660;5.824;2022-09-27T12:03:45;50.17;41.35;66.95;;
60503;Laerm;51448;51.660;5.824;2022-09-27T12:06:40;53.14;41.83;79.04;;
60503;Laerm;51448;51.660;5.824;2022-09-27T12:09:22;49.97;43.29;61.87;;
60503;Laerm;51448;51.660;5.824;2022-09-27T12:12:13;50.90;43.09;64.14;;
60503;Laerm;51448;51.660;5.824;2022-09-27T12:15:04;51.04;44.66;65.02;;
60503;Laerm;51448;51.660;5.824;2022-09-27T12:17:41;52.97;46.72;62.02;;
60503;Laerm;51448;51.660;5.824;2022-09-27T12:20:22;53.85;48.20;68.74;;
60503;Laerm;51448;51.660;5.824;2022-09-27T12:23:14;54.96;47.29;66.78;;
60503;Laerm;51448;51.660;5.824;2022-09-27T12:26:23;49.76;41.86;61.16;;
60503;Laerm;51448;51.660;5.824;2022-09-27T12:28:58;58.92;43.37;73.14;;
60503;Laerm;51448;51.660;5.824;2022-09-27T12:31:46;54.21;45.20;66.93;;
60503;Laerm;51448;51.660;5.824;2022-09-27T12:34:31;53.58;43.50;64.43;;
60503;Laerm;51448;51.660;5.824;2022-09-27T12:37:11;63.11;44.90;73.86;;
60503;Laerm;51448;51.660;5.824;2022-09-27T12:39:51;63.34;42.66;77.14;;
60503;Laerm;51448;51.660;5.824;2022-09-27T12:42:36;55.36;37.82;67.77;;
60503;Laerm;51448;51.660;5.824;2022-09-27T12:45:14;52.60;42.75;64.03;;
60503;Laerm;51448;51.660;5.824;2022-09-27T12:50:42;51.35;41.20;69.06;;
60503;Laerm;51448;51.660;5.824;2022-09-27T12:53:29;60.11;41.97;76.95;;
60503;Laerm;51448;51.660;5.824;2022-09-27T12:56:08;50.32;39.10;63.78;;
60503;Laerm;51448;51.660;5.824;2022-09-27T12:58:56;50.63;40.74;60.92;;
60503;Laerm;51448;51.660;5.824;2022-09-27T13:05:25;50.57;36.74;65.70;;
60503;Laerm;51448;51.660;5.824;2022-09-27T13:11:24;43.98;36.03;53.14;;
60503;Laerm;51448;51.660;5.824;2022-09-27T13:13:59;46.34;34.95;59.58;;
60503;Laerm;51448;51.660;5.824;2022-09-27T13:16:29;47.71;34.60;60.61;;
60503;Laerm;51448;51.660;5.824;2022-09-27T13:18:58;50.45;37.21;60.26;;
60503;Laerm;51448;51.660;5.824;2022-09-27T13:44:45;50.87;34.61;67.31;;
60503;Laerm;51448;51.660;5.824;2022-09-27T13:47:28;52.21;35.19;72.42;;
60503;Laerm;51448;51.660;5.824;2022-09-27T13:50:49;51.74;35.24;62.75;;
60503;Laerm;51448;51.660;5.824;2022-09-27T13:53:34;45.81;35.13;56.37;;
60503;Laerm;51448;51.660;5.824;2022-09-27T13:56:04;51.52;37.64;67.73;;
60503;Laerm;51448;51.660;5.824;2022-09-27T14:01:45;54.71;36.01;66.81;;
60503;Laerm;51448;51.660;5.824;2022-09-27T14:04:36;50.63;35.74;59.79;;
60503;Laerm;51448;51.660;5.824;2022-09-27T14:07:15;52.49;36.67;66.23;;
60503;Laerm;51448;51.660;5.824;2022-09-27T14:09:49;56.99;37.42;69.72;;
60503;Laerm;51448;51.660;5.824;2022-09-27T14:12:28;64.70;37.00;78.52;;
60503;Laerm;51448;51.660;5.824;2022-09-27T14:15:01;58.15;36.70;77.03;;
60503;Laerm;51448;51.660;5.824;2022-09-27T14:17:32;58.21;37.35;79.97;;
60503;Laerm;51448;51.660;5.824;2022-09-27T14:20:00;53.13;35.05;63.48;;
60503;Laerm;51448;51.660;5.824;2022-09-27T14:22:30;48.78;35.32;58.04;;
60503;Laerm;51448;51.660;5.824;2022-09-27T14:25:00;52.39;37.01;62.84;;
60503;Laerm;51448;51.660;5.824;2022-09-27T14:27:37;46.72;34.51;57.19;;
60503;Laerm;51448;51.660;5.824;2022-09-27T14:30:34;49.51;33.47;72.00;;
60503;Laerm;51448;51.660;5.824;2022-09-27T14:33:31;49.74;35.78;67.06;;
60503;Laerm;51448;51.660;5.824;2022-09-27T14:36:29;49.56;34.42;58.61;;
60503;Laerm;51448;51.660;5.824;2022-09-27T14:39:31;48.72;33.77;65.64;;
60503;Laerm;51448;51.660;5.824;2022-09-27T14:42:15;49.19;34.79;57.99;;
60503;Laerm;51448;51.660;5.824;2022-09-27T14:44:44;48.19;33.92;58.90;;
60503;Laerm;51448;51.660;5.824;2022-09-27T14:47:21;50.10;33.95;59.94;;
60503;Laerm;51448;51.660;5.824;2022-09-27T14:50:17;49.62;36.58;63.39;;
60503;Laerm;51448;51.660;5.824;2022-09-27T14:52:45;50.71;35.56;60.18;;
60503;Laerm;51448;51.660;5.824;2022-09-27T14:55:19;49.14;35.04;67.34;;
60503;Laerm;51448;51.660;5.824;2022-09-27T14:58:12;51.95;34.80;62.38;;
60503;Laerm;51448;51.660;5.824;2022-09-27T15:01:01;47.29;37.56;59.22;;
60503;Laerm;51448;51.660;5.824;2022-09-27T15:03:31;54.98;43.69;66.41;;
60503;Laerm;51448;51.660;5.824;2022-09-27T15:06:05;58.33;51.26;68.26;;
60503;Laerm;51448;51.660;5.824;2022-09-27T15:08:33;59.67;52.05;76.78;;
60503;Laerm;51448;51.660;5.824;2022-09-27T15:11:03;54.58;40.69;64.20;;
60503;Laerm;51448;51.660;5.824;2022-09-27T15:13:38;53.73;37.63;70.26;;
60503;Laerm;51448;51.660;5.824;2022-09-27T15:16:13;51.17;38.40;67.13;;
60503;Laerm;51448;51.660;5.824;2022-09-27T15:18:49;52.32;38.20;69.22;;
60503;Laerm;51448;51.660;5.824;2022-09-27T15:21:33;50.39;36.12;62.57;;
60503;Laerm;51448;51.660;5.824;2022-09-27T15:24:02;50.51;36.77;63.24;;
60503;Laerm;51448;51.660;5.824;2022-09-27T15:26:39;53.51;37.21;66.60;;
60503;Laerm;51448;51.660;5.824;2022-09-27T15:29:22;52.23;36.74;70.71;;
60503;Laerm;51448;51.660;5.824;2022-09-27T15:32:04;51.30;34.38;65.53;;
60503;Laerm;51448;51.660;5.824;2022-09-27T15:34:34;51.58;35.39;63.97;;
60503;Laerm;51448;51.660;5.824;2022-09-27T15:37:03;49.88;34.75;60.99;;
60503;Laerm;51448;51.660;5.824;2022-09-27T15:39:36;50.08;34.07;59.48;;
60503;Laerm;51448;51.660;5.824;2022-09-27T15:42:07;47.86;33.65;66.46;;
60503;Laerm;51448;51.660;5.824;2022-09-27T15:47:46;49.53;32.94;60.98;;
60503;Laerm;51448;51.660;5.824;2022-09-27T15:52:45;47.90;34.27;60.52;;
60503;Laerm;51448;51.660;5.824;2022-09-27T15:55:21;52.08;34.37;70.97;;
60503;Laerm;51448;51.660;5.824;2022-09-27T15:57:59;46.56;34.69;56.10;;
60503;Laerm;51448;51.660;5.824;2022-09-27T16:00:29;48.36;33.78;62.32;;
60503;Laerm;51448;51.660;5.824;2022-09-27T16:02:56;48.70;34.18;60.90;;
60503;Laerm;51448;51.660;5.824;2022-09-27T16:05:24;51.87;34.07;60.98;;
60503;Laerm;51448;51.660;5.824;2022-09-27T16:07:55;48.24;33.06;61.98;;
60503;Laerm;51448;51.660;5.824;2022-09-27T16:10:44;53.49;35.38;68.79;;
60503;Laerm;51448;51.660;5.824;2022-09-27T16:13:13;50.29;34.57;68.93;;
60503;Laerm;51448;51.660;5.824;2022-09-27T16:15:44;49.11;33.43;68.00;;
60503;Laerm;51448;51.660;5.824;2022-09-27T16:18:12;52.75;36.54;68.12;;
60503;Laerm;51448;51.660;5.824;2022-09-27T16:20:39;58.02;43.90;70.80;;
60503;Laerm;51448;51.660;5.824;2022-09-27T16:23:07;53.99;42.66;70.06;;
60503;Laerm;51448;51.660;5.824;2022-09-27T16:25:34;54.44;41.15;75.21;;
60503;Laerm;51448;51.660;5.824;2022-09-27T16:28:03;58.95;41.07;78.76;;
60503;Laerm;51448;51.660;5.824;2022-09-27T16:30:31;51.79;40.22;66.06;;
60503;Laerm;51448;51.660;5.824;2022-09-27T16:32:59;52.23;37.88;66.93;;